Rapid City, South Dakota
Current Conditions -  °F | °C
As of 10:49 AM on Monday 24 Nov 2014 (Local Time) from KRCA Reporting Station
Light Snow Light Snow  
Wind Chill: 18°   Ceiling: 1900
Heat Index: 27°   Visibility: 0.75mi
Dew Point: 25°   Wind: 8mph
Humidity: 93%   Direction: 360°N
Pressure: 29.88"   Gusts: NA
Location:  44.08°N, 103.23°W
Report Text: KRCA 241749Z 36007KT 3/4SM -SN SCT007 OVC019 M03/M04 A2988 RMK AO2A SNB1722E1725SNE1722B1725 CIG 007V019 CIG 002 RWY13 $
Loading
Personal Weather Stations






























Interactive Weather Map New forecast layout! Learn more

10-Day Weather Forecast

Advertisements
Track Severe Weather on mobile